createdAt,value
2023-05-10T00:08:18.005Z,0
2023-05-10T00:18:56.510Z,0
2023-05-10T00:24:16.220Z,0
2023-05-10T00:29:35.288Z,0
2023-05-10T00:34:54.407Z,0
2023-05-10T00:40:13.494Z,0
2023-05-10T00:50:51.511Z,0
2023-05-10T00:56:10.510Z,0
2023-05-10T01:01:29.402Z,0
2023-05-10T01:06:48.460Z,0
2023-05-10T01:12:07.271Z,0
2023-05-10T01:17:26.504Z,0
2023-05-10T01:22:46.005Z,0
2023-05-10T01:33:24.298Z,0
2023-05-10T01:38:44.021Z,0
2023-05-10T01:49:23.216Z,0
2023-05-10T02:00:02.367Z,0
2023-05-10T02:05:21.236Z,0
2023-05-10T02:10:40.118Z,0
2023-05-10T02:15:59.838Z,0
2023-05-10T02:21:18.643Z,0
2023-05-10T02:26:37.881Z,0
2023-05-10T02:31:57.360Z,0
2023-05-10T02:42:35.567Z,0
2023-05-10T02:47:55.002Z,0
2023-05-10T02:53:14.501Z,0
2023-05-10T02:58:33.866Z,0
2023-05-10T03:04:17.043Z,0
2023-05-10T03:09:36.426Z,0
2023-05-10T03:14:55.861Z,0
2023-05-10T03:20:23.525Z,0
2023-05-10T03:25:35.187Z,0
2023-05-10T03:30:54.573Z,0
2023-05-10T03:41:33.049Z,7
2023-05-10T03:46:52.436Z,12
2023-05-10T03:52:11.042Z,16
2023-05-10T03:57:30.082Z,27.05
2023-05-10T04:02:49.530Z,31.84
2023-05-10T04:08:08.865Z,31.75
2023-05-10T04:13:28.312Z,36.14
2023-05-10T04:24:06.933Z,50.44
2023-05-10T04:29:26.425Z,50.44
2023-05-10T04:34:45.306Z,58.05
2023-05-10T04:40:05.296Z,60.89
2023-05-10T04:45:22.861Z,73.55
2023-05-10T04:50:42.090Z,77.64
2023-05-10T04:56:01.761Z,90.64
2023-05-10T05:06:39.536Z,97.79
2023-05-10T05:11:58.597Z,122.75
2023-05-10T05:17:17.773Z,126.89
2023-05-10T05:22:36.449Z,143.6
2023-05-10T05:33:15.644Z,266.04
2023-05-10T05:38:34.687Z,315.25
2023-05-10T05:43:54.274Z,331.34
2023-05-10T05:49:13.907Z,433.94
2023-05-10T05:54:32.336Z,401.15
2023-05-10T05:59:51.072Z,446.44
2023-05-10T06:05:10.115Z,529
2023-05-10T06:21:08.970Z,206.09
2023-05-10T06:31:47.217Z,453.15
2023-05-10T06:37:06.347Z,482.5
2023-05-10T06:47:45.877Z,396.59
2023-05-10T06:53:05.506Z,478.59
2023-05-10T07:03:43.719Z,434.69
2023-05-10T07:14:22.124Z,478.29
2023-05-10T07:20:56.281Z,500.69
2023-05-10T07:25:02.412Z,558.84
2023-05-10T07:30:21.414Z,472.34
2023-05-10T07:35:39.109Z,557.05
2023-05-10T07:46:18.256Z,526.15
2023-05-10T07:56:56.678Z,30.83
2023-05-10T08:02:16.085Z,142.33
2023-05-10T08:07:34.964Z,155.44
2023-05-10T08:12:54.283Z,330.98
2023-05-10T08:18:13.509Z,68.83
2023-05-10T08:23:32.413Z,586.25
2023-05-10T08:28:51.977Z,486.9
2023-05-10T08:34:11.290Z,413.94
2023-05-10T08:39:31.011Z,395.94
2023-05-10T08:44:49.990Z,520.09
2023-05-10T08:55:28.683Z,376
2023-05-10T09:00:47.501Z,207.45
2023-05-10T09:06:07.024Z,257.25
2023-05-10T09:11:26.166Z,389.29
2023-05-10T09:16:45.382Z,4.39
2023-05-10T09:22:04.931Z,20.53
2023-05-10T09:27:23.756Z,261.19
2023-05-10T09:32:43.191Z,301.39
2023-05-10T09:38:01.420Z,75.48
2023-05-10T09:43:20.785Z,635.14
2023-05-10T09:48:40.055Z,38.89
2023-05-10T09:54:00.024Z,18.83
2023-05-10T09:59:18.979Z,253.58
2023-05-10T10:04:38.208Z,320.33
2023-05-10T10:09:56.962Z,245.98
2023-05-10T10:20:34.813Z,197.14
2023-05-10T10:25:54.186Z,479.83
2023-05-10T10:31:12.843Z,501.58
2023-05-10T10:36:32.113Z,590.89
2023-05-10T10:41:51.380Z,135.78
2023-05-10T10:47:11.040Z,170.64
2023-05-10T10:52:29.968Z,640.9
2023-05-10T10:57:49.470Z,306.14
2023-05-10T11:03:08.525Z,412.19
2023-05-10T11:08:27.252Z,373.08
2023-05-10T11:13:49.268Z,166.14
2023-05-10T11:19:06.588Z,29.98
2023-05-10T11:24:25.821Z,94.78
2023-05-10T11:29:44.587Z,93.64
2023-05-10T11:35:03.670Z,123.44
2023-05-10T11:40:22.678Z,142.03
2023-05-10T11:45:41.813Z,44.94
2023-05-10T11:56:20.141Z,16.28
2023-05-10T12:01:39.224Z,338.03
2023-05-10T12:06:58.139Z,342.94
2023-05-10T12:12:16.963Z,519.15
2023-05-10T12:17:36.644Z,318.34
2023-05-10T12:28:14.551Z,424.94
2023-05-10T12:33:33.750Z,494.04
2023-05-10T12:38:53.456Z,472.29
2023-05-10T12:44:12.719Z,482.79
2023-05-10T12:54:50.549Z,567.44
2023-05-10T13:00:10.205Z,634.94
2023-05-10T13:10:49.015Z,235.29
2023-05-10T13:16:08.663Z,174.29
2023-05-10T13:26:46.835Z,207.59
2023-05-10T13:32:06.112Z,226.84
2023-05-10T13:37:24.990Z,294.29
2023-05-10T13:42:44.345Z,320.29
2023-05-10T13:48:03.779Z,304.79
2023-05-10T13:53:23.038Z,297.29
2023-05-10T13:58:41.686Z,337.25
2023-05-10T14:04:00.979Z,351.25
2023-05-10T14:09:19.631Z,318.9
2023-05-10T14:14:38.643Z,290.25
2023-05-10T14:19:58.102Z,240.84
2023-05-10T14:25:17.732Z,186.34
2023-05-10T14:30:36.722Z,163.69
2023-05-10T14:35:56.406Z,160.79
2023-05-10T14:41:15.389Z,158.85
2023-05-10T14:46:35.669Z,155.6
2023-05-10T14:51:55.550Z,184.7
2023-05-10T14:57:14.654Z,235.39
2023-05-10T15:07:51.918Z,308.75
2023-05-10T15:13:10.747Z,358.65
2023-05-10T15:18:29.916Z,404.4
2023-05-10T15:23:49.489Z,410.75
2023-05-10T15:34:28.242Z,342.44
2023-05-10T15:39:46.737Z,321.75
2023-05-10T15:45:07.096Z,323.54
2023-05-10T15:50:25.426Z,338.25
2023-05-10T15:55:44.520Z,354.75
2023-05-10T16:01:03.728Z,371.54
2023-05-10T16:06:22.709Z,354.15
2023-05-10T16:11:42.014Z,356
2023-05-10T16:17:01.044Z,348.65
2023-05-10T16:22:20.040Z,332.25
2023-05-10T16:32:58.261Z,288.15
2023-05-10T16:43:36.857Z,277.2
2023-05-10T16:48:56.416Z,258.29
2023-05-10T16:54:23.613Z,230.54
2023-05-10T16:59:33.918Z,221.95
2023-05-10T17:10:11.738Z,177.84
2023-05-10T17:20:49.645Z,152.64
2023-05-10T17:26:08.414Z,141.35
2023-05-10T17:31:37.436Z,128.29
2023-05-10T17:36:46.372Z,119.44
2023-05-10T17:42:06.794Z,104.14
2023-05-10T17:47:26.169Z,89.54
2023-05-10T17:52:45.006Z,82.34
2023-05-10T17:58:04.520Z,71.09
2023-05-10T18:08:43.116Z,57.35
2023-05-10T18:14:02.512Z,50.85
2023-05-10T18:19:22.151Z,42.3
2023-05-10T18:24:41.266Z,39.7
2023-05-10T18:30:00.375Z,34.69
2023-05-10T18:35:19.793Z,30.8
2023-05-10T18:40:38.456Z,27.7
2023-05-10T18:45:57.226Z,29.65
2023-05-10T18:51:16.394Z,19.84
2023-05-10T18:56:34.811Z,18
2023-05-10T19:01:54.995Z,3
2023-05-10T19:07:13.669Z,0
2023-05-10T19:17:51.810Z,0
2023-05-10T19:23:10.908Z,0
2023-05-10T19:28:30.233Z,0
2023-05-10T19:33:49.301Z,0
2023-05-10T19:39:08.494Z,0
2023-05-10T19:44:27.363Z,0
2023-05-10T19:49:46.430Z,0
2023-05-10T19:55:05.636Z,0
2023-05-10T20:00:25.115Z,0
2023-05-10T20:05:44.111Z,0
2023-05-10T20:16:22.255Z,0
2023-05-10T20:21:40.598Z,0
2023-05-10T20:32:19.099Z,0
2023-05-10T20:37:38.763Z,0
2023-05-10T20:42:57.513Z,0
2023-05-10T20:48:26.886Z,0
2023-05-10T20:54:19.395Z,0
2023-05-10T20:59:30.242Z,0
2023-05-10T21:04:58.371Z,0
2023-05-10T21:10:08.265Z,0
2023-05-10T21:15:36.578Z,0
2023-05-10T21:20:47.611Z,0
2023-05-10T21:31:25.736Z,0
2023-05-10T21:36:52.794Z,0
2023-05-10T21:47:31.282Z,0
2023-05-10T21:52:42.124Z,0
2023-05-10T21:58:09.508Z,0
2023-05-10T22:03:20.866Z,0
2023-05-10T22:08:49.874Z,0
2023-05-10T22:13:59.043Z,0
2023-05-10T22:19:18.479Z,0
2023-05-10T22:24:38.159Z,0
2023-05-10T22:29:57.260Z,0
2023-05-10T22:35:25.861Z,0
2023-05-10T22:40:36.014Z,0
2023-05-10T22:46:04.188Z,0
2023-05-10T22:51:14.731Z,0
2023-05-10T22:56:42.061Z,0
2023-05-10T23:01:53.215Z,0
2023-05-10T23:07:20.444Z,0
2023-05-10T23:12:31.359Z,0
2023-05-10T23:17:50.511Z,0
2023-05-10T23:23:09.820Z,0
2023-05-10T23:28:29.072Z,0
2023-05-10T23:39:07.042Z,0
2023-05-10T23:49:45.803Z,0
2023-05-10T23:55:04.775Z,0
